Time;durP1;ratioP1;P1;durP2;ratioP2;P2;SDS_P1;SDS_P2;PMS_P1;PMS_P2;Temp;Humidity;BMP_temperature;BMP_pressure;BME280_temperature;BME280_humidity;BME280_pressure;Samples;Min_cycle;Max_cycle;Signal;HPM_P1;HPM_P2
2023/03/29 05:46:56;;;;;;;;;5.50;5.25;;;;;;;;5384745;22;50978;-74
2023/03/29 05:49:22;;;;;;;;;7.50;7.50;;;;;;;;5068076;27;49981;-76
2023/03/29 05:51:47;;;;;;;;;6.00;5.50;;;;;;;;5069185;28;49688;-80
2023/03/29 05:54:13;;;;;;;;;5.00;5.00;;;;;;;;5062227;28;49658;-81
2023/03/29 05:56:39;;;;;;;;;9.25;7.75;;;;;;;;5068391;28;49858;-78
2023/03/29 05:59:04;;;;;;;;;5.00;4.75;;;;;;;;5068626;28;49750;-77
2023/03/29 06:01:29;;;;;;;;;6.25;5.25;;;;;;;;5059402;27;50219;-77
2023/03/29 06:03:56;;;;;;;;;6.00;5.00;;;;;;;;5066963;28;50140;-75
2023/03/29 06:06:21;;;;;;;;;4.75;4.75;;;;;;;;5067430;27;49669;-76
2023/03/29 06:08:46;;;;;;;;;5.00;3.50;;;;;;;;5063461;27;50206;-77
2023/03/29 06:11:12;;;;;;;;;4.25;4.25;;;;;;;;5060816;28;50167;-76
2023/03/29 06:13:37;;;;;;;;;3.00;3.00;;;;;;;;5055575;27;50396;-77
2023/03/29 06:16:06;;;;;;;;;4.00;3.75;;;;;;;;5068485;28;50195;-75
2023/03/29 06:18:32;;;;;;;;;3.75;3.75;;;;;;;;5069540;28;49742;-80
2023/03/29 06:20:57;;;;;;;;;3.75;3.75;;;;;;;;5068187;28;50465;-77
2023/03/29 06:23:22;;;;;;;;;7.00;5.50;;;;;;;;5068346;28;49738;-75
2023/03/29 06:25:48;;;;;;;;;10.50;6.50;;;;;;;;5043806;28;50029;-73
2023/03/29 06:28:13;;;;;;;;;5.75;5.75;;;;;;;;5066973;28;50074;-75
2023/03/29 06:30:39;;;;;;;;;6.00;6.00;;;;;;;;5068171;28;49863;-74
2023/03/29 06:33:05;;;;;;;;;9.00;5.00;;;;;;;;5067876;27;50016;-76
2023/03/29 06:35:31;;;;;;;;;6.25;6.25;;;;;;;;5050130;28;50290;-75
2023/03/29 06:37:56;;;;;;;;;6.00;6.00;;;;;;;;5067926;28;49794;-76
2023/03/29 06:40:21;;;;;;;;;9.50;6.00;;;;;;;;5060602;27;50068;-76
2023/03/29 06:42:47;;;;;;;;;5.75;5.75;;;;;;;;5067071;28;49765;-76
2023/03/29 06:45:12;;;;;;;;;5.00;5.00;;;;;;;;5067466;28;50183;-74
2023/03/29 06:47:38;;;;;;;;;6.00;4.75;;;;;;;;5068225;28;50314;-79
2023/03/29 06:50:03;;;;;;;;;7.25;5.75;;;;;;;;5065000;28;50529;-74
2023/03/29 06:52:29;;;;;;;;;7.75;6.00;;;;;;;;5067579;28;49743;-75
2023/03/29 06:54:54;;;;;;;;;7.00;6.25;;;;;;;;5067963;28;49716;-75
2023/03/29 06:57:19;;;;;;;;;5.75;5.00;;;;;;;;5061800;28;49949;-74
2023/03/29 06:59:45;;;;;;;;;7.75;7.50;;;;;;;;5067657;28;50050;-75
2023/03/29 07:02:11;;;;;;;;;5.00;5.00;;;;;;;;5066102;28;49670;-78
2023/03/29 07:04:36;;;;;;;;;7.00;6.00;;;;;;;;5068084;28;50029;-77
2023/03/29 07:07:02;;;;;;;;;6.75;6.00;;;;;;;;5068325;28;49686;-77
2023/03/29 07:09:30;;;;;;;;;5.50;5.50;;;;;;;;5048788;28;51093;-76
2023/03/29 07:11:57;;;;;;;;;6.25;6.25;;;;;;;;5067942;28;50757;-76
2023/03/29 07:14:25;;;;;;;;;5.00;5.00;;;;;;;;5067340;28;49801;-74
2023/03/29 07:16:50;;;;;;;;;8.75;7.00;;;;;;;;5067823;28;49651;-74
2023/03/29 07:19:15;;;;;;;;;6.25;4.25;;;;;;;;5067467;27;51135;-80
2023/03/29 07:21:41;;;;;;;;;6.75;5.75;;;;;;;;5067736;28;50105;-78
2023/03/29 07:24:09;;;;;;;;;5.00;5.00;;;;;;;;5060624;28;49926;-81
2023/03/29 07:26:34;;;;;;;;;6.75;6.00;;;;;;;;5067477;27;49740;-78
2023/03/29 07:28:59;;;;;;;;;5.25;5.25;;;;;;;;5061688;28;50976;-80
2023/03/29 07:31:25;;;;;;;;;5.50;4.50;;;;;;;;5067796;28;49758;-81
2023/03/29 07:33:52;;;;;;;;;5.00;5.00;;;;;;;;5064579;28;49758;-80
2023/03/29 07:36:17;;;;;;;;;6.25;4.25;;;;;;;;5067829;28;49680;-82
2023/03/29 07:38:42;;;;;;;;;7.75;6.00;;;;;;;;5070438;28;51518;-82
2023/03/29 07:41:08;;;;;;;;;6.25;6.25;;;;;;;;5070657;28;49771;-77
2023/03/29 07:43:33;;;;;;;;;7.00;6.00;;;;;;;;5042543;27;49995;-76
2023/03/29 07:46:04;;;;;;;;;7.50;5.75;;;;;;;;5043426;28;49960;-79
2023/03/29 07:48:29;;;;;;;;;10.00;5.00;;;;;;;;5041274;28;49873;-77
2023/03/29 07:50:55;;;;;;;;;6.25;5.50;;;;;;;;5060482;27;49815;-74
2023/03/29 07:53:21;;;;;;;;;9.50;9.50;;;;;;;;5043841;28;50116;-76
2023/03/29 07:55:48;;;;;;;;;6.00;6.00;;;;;;;;5056951;27;49913;-77
2023/03/29 07:58:13;;;;;;;;;6.00;5.75;;;;;;;;5069923;27;51414;-77
2023/03/29 08:00:39;;;;;;;;;7.50;7.50;;;;;;;;5069552;28;49983;-77
2023/03/29 08:03:04;;;;;;;;;7.75;5.50;;;;;;;;5070068;27;49599;-77
2023/03/29 08:05:29;;;;;;;;;5.50;5.25;;;;;;;;5070612;28;50020;-77
2023/03/29 08:07:54;;;;;;;;;5.50;5.50;;;;;;;;5065910;28;50520;-76
2023/03/29 08:10:20;;;;;;;;;6.25;5.50;;;;;;;;5067592;28;50019;-76
2023/03/29 08:12:46;;;;;;;;;7.00;5.50;;;;;;;;5069488;28;50010;-76
2023/03/29 08:15:12;;;;;;;;;6.00;4.75;;;;;;;;5070166;27;50006;-76
2023/03/29 08:17:37;;;;;;;;;6.25;5.25;;;;;;;;5069783;28;50989;-75
2023/03/29 08:20:04;;;;;;;;;6.00;6.00;;;;;;;;5051081;27;49833;-74
2023/03/29 08:22:30;;;;;;;;;6.50;5.00;;;;;;;;5069163;28;49799;-74
2023/03/29 08:24:56;;;;;;;;;5.00;4.00;;;;;;;;5070356;28;50077;-74
2023/03/29 08:27:21;;;;;;;;;4.75;4.75;;;;;;;;5066829;27;50916;-73
2023/03/29 08:29:46;;;;;;;;;4.75;4.00;;;;;;;;5069153;28;50081;-74
2023/03/29 08:32:11;;;;;;;;;7.25;6.00;;;;;;;;5069944;28;50127;-74
2023/03/29 08:34:37;;;;;;;;;6.25;6.25;;;;;;;;5070033;27;50171;-74
2023/03/29 08:37:03;;;;;;;;;6.00;6.00;;;;;;;;5068655;27;50820;-74
2023/03/29 08:39:28;;;;;;;;;9.75;5.00;;;;;;;;5069035;28;49737;-74
2023/03/29 08:42:06;;;;;;;;;4.00;3.50;;;;;;;;5069965;28;50051;-74
2023/03/29 08:44:37;;;;;;;;;6.75;4.75;;;;;;;;5070018;28;50067;-74
2023/03/29 08:47:08;;;;;;;;;6.75;4.75;;;;;;;;5051108;28;51219;-77
2023/03/29 08:49:36;;;;;;;;;4.00;4.00;;;;;;;;5069179;28;49835;-73
2023/03/29 08:52:03;;;;;;;;;5.50;4.00;;;;;;;;5069581;28;49797;-76
2023/03/29 08:54:33;;;;;;;;;6.00;5.25;;;;;;;;5069800;28;49977;-77
2023/03/29 08:57:02;;;;;;;;;3.75;3.75;;;;;;;;5053935;28;52863;-82
2023/03/29 08:59:28;;;;;;;;;5.75;4.75;;;;;;;;5070513;28;49689;-84
2023/03/29 09:01:55;;;;;;;;;5.75;5.75;;;;;;;;5069618;27;49797;-73
2023/03/29 09:04:29;;;;;;;;;3.00;3.00;;;;;;;;5059217;27;49685;-73
2023/03/29 09:06:54;;;;;;;;;4.50;4.25;;;;;;;;5062718;28;50961;-79
2023/03/29 09:09:22;;;;;;;;;3.00;3.00;;;;;;;;5062221;28;49812;-80
2023/03/29 09:11:56;;;;;;;;;6.00;5.00;;;;;;;;5067903;28;49822;-78
2023/03/29 09:14:34;;;;;;;;;2.75;2.75;;;;;;;;5067119;27;50039;-79
2023/03/29 09:17:17;;;;;;;;;8.25;4.50;;;;;;;;5069400;28;50032;-79
2023/03/29 09:19:42;;;;;;;;;8.50;5.75;;;;;;;;5061353;28;49844;-82
2023/03/29 09:22:13;;;;;;;;;4.25;4.25;;;;;;;;5069125;28;49725;-78
2023/03/29 09:24:38;;;;;;;;;9.00;4.75;;;;;;;;5069844;28;49927;-82
2023/03/29 09:27:13;;;;;;;;;9.00;8.00;;;;;;;;5068520;28;50657;-83
2023/03/29 09:29:48;;;;;;;;;3.00;3.00;;;;;;;;5070154;28;49715;-77
2023/03/29 09:32:21;;;;;;;;;6.00;4.00;;;;;;;;5057519;28;50269;-82
2023/03/29 09:34:56;;;;;;;;;5.75;5.75;;;;;;;;5062029;28;50099;-76
2023/03/29 09:37:28;;;;;;;;;6.00;4.00;;;;;;;;5067677;28;50898;-79
2023/03/29 09:39:55;;;;;;;;;5.50;4.75;;;;;;;;5064272;28;50488;-76
2023/03/29 09:42:21;;;;;;;;;4.25;2.50;;;;;;;;5066282;28;49931;-80
2023/03/29 09:44:49;;;;;;;;;4.75;4.75;;;;;;;;5063522;27;49744;-74
2023/03/29 09:47:23;;;;;;;;;5.25;5.00;;;;;;;;5065397;28;50620;-68
2023/03/29 09:49:50;;;;;;;;;5.75;3.75;;;;;;;;5065124;28;49793;-69
2023/03/29 09:52:17;;;;;;;;;5.50;4.00;;;;;;;;5066228;28;50093;-63
2023/03/29 09:54:42;;;;;;;;;4.25;3.50;;;;;;;;5059400;28;49889;-67
2023/03/29 09:57:12;;;;;;;;;5.00;3.75;;;;;;;;5048026;28;50042;-75
2023/03/29 09:59:38;;;;;;;;;5.00;4.00;;;;;;;;5064485;28;49858;-72
2023/03/29 10:02:05;;;;;;;;;4.00;3.75;;;;;;;;5060058;28;50741;-75
2023/03/29 10:04:30;;;;;;;;;3.00;3.00;;;;;;;;5065201;28;50040;-73
2023/03/29 10:06:57;;;;;;;;;5.00;4.00;;;;;;;;5065469;28;49704;-71
2023/03/29 10:09:23;;;;;;;;;5.00;5.00;;;;;;;;5068039;28;49835;-72
2023/03/29 10:11:50;;;;;;;;;4.25;3.00;;;;;;;;5064633;28;50271;-72
2023/03/29 10:14:17;;;;;;;;;4.25;3.75;;;;;;;;5063408;28;49747;-72
2023/03/29 10:16:46;;;;;;;;;4.75;4.25;;;;;;;;5060181;27;49871;-73
2023/03/29 10:19:14;;;;;;;;;3.50;3.50;;;;;;;;5041993;28;49733;-75
2023/03/29 10:21:41;;;;;;;;;3.25;3.25;;;;;;;;5042760;28;49913;-75
2023/03/29 10:24:08;;;;;;;;;6.75;4.75;;;;;;;;5060031;28;50063;-74
2023/03/29 10:26:36;;;;;;;;;4.75;4.00;;;;;;;;5044262;28;51282;-72
2023/03/29 10:29:02;;;;;;;;;3.00;3.00;;;;;;;;5058138;27;49746;-74
2023/03/29 10:31:30;;;;;;;;;2.25;2.25;;;;;;;;5062637;28;49834;-75
2023/03/29 10:33:56;;;;;;;;;5.50;5.50;;;;;;;;5067572;28;50097;-75
2023/03/29 10:36:22;;;;;;;;;4.00;3.00;;;;;;;;5067757;28;50133;-75
2023/03/29 10:38:48;;;;;;;;;4.00;3.50;;;;;;;;5067832;28;50089;-76
2023/03/29 10:41:20;;;;;;;;;4.00;2.50;;;;;;;;5068019;28;50176;-76
2023/03/29 10:43:49;;;;;;;;;3.75;3.50;;;;;;;;5067570;28;49882;-72
2023/03/29 10:46:20;;;;;;;;;2.75;2.25;;;;;;;;5066287;28;49975;-74
2023/03/29 10:48:46;;;;;;;;;4.25;3.25;;;;;;;;5064755;28;49859;-77
2023/03/29 10:51:13;;;;;;;;;5.00;3.75;;;;;;;;5068508;28;49792;-78
2023/03/29 10:53:38;;;;;;;;;3.00;3.00;;;;;;;;5043996;28;50118;-77
2023/03/29 10:56:10;;;;;;;;;3.50;1.75;;;;;;;;5066685;28;50643;-77
2023/03/29 10:58:36;;;;;;;;;2.75;2.75;;;;;;;;5049242;28;49707;-78
2023/03/29 11:01:02;;;;;;;;;5.50;3.00;;;;;;;;5067469;27;49791;-78
2023/03/29 11:03:50;;;;;;;;;3.75;3.75;;;;;;;;5067328;28;50025;-77
2023/03/29 11:06:34;;;;;;;;;3.25;2.00;;;;;;;;5066858;28;50159;-77
2023/03/29 11:09:19;;;;;;;;;5.00;5.00;;;;;;;;5067508;28;49745;-77
2023/03/29 11:11:52;;;;;;;;;6.75;4.00;;;;;;;;5041792;28;49745;-77
2023/03/29 11:14:20;;;;;;;;;4.00;4.00;;;;;;;;5069672;27;49923;-77
2023/03/29 11:16:52;;;;;;;;;2.50;1.50;;;;;;;;5071101;28;49802;-78
2023/03/29 11:19:35;;;;;;;;;6.00;4.00;;;;;;;;5070996;28;50076;-78
2023/03/29 11:22:07;;;;;;;;;4.25;2.75;;;;;;;;5069033;28;49848;-78
2023/03/29 11:24:47;;;;;;;;;4.00;3.00;;;;;;;;5071361;28;49604;-78
2023/03/29 11:27:22;;;;;;;;;3.00;2.75;;;;;;;;5070941;28;50293;-78
2023/03/29 11:30:05;;;;;;;;;3.00;3.00;;;;;;;;5070999;28;49736;-77
2023/03/29 11:32:33;;;;;;;;;2.00;2.00;;;;;;;;5064541;28;49781;-77
2023/03/29 11:35:04;;;;;;;;;2.50;2.25;;;;;;;;5071115;28;50009;-77
2023/03/29 11:37:37;;;;;;;;;2.00;2.00;;;;;;;;5064565;28;50204;-77
2023/03/29 11:40:04;;;;;;;;;4.00;2.50;;;;;;;;5070653;28;49773;-77
2023/03/29 11:42:32;;;;;;;;;1.25;1.25;;;;;;;;5051983;28;49734;-77
2023/03/29 11:44:58;;;;;;;;;2.50;2.25;;;;;;;;5051842;27;49976;-78
2023/03/29 11:47:30;;;;;;;;;2.00;2.00;;;;;;;;5070399;27;49796;-77
2023/03/29 11:49:58;;;;;;;;;1.25;1.25;;;;;;;;5070440;28;49758;-77
2023/03/29 11:52:27;;;;;;;;;3.25;2.25;;;;;;;;5070443;28;49780;-77
2023/03/29 11:55:10;;;;;;;;;4.00;1.50;;;;;;;;5070597;28;49711;-77
2023/03/29 11:57:37;;;;;;;;;2.00;2.00;;;;;;;;5070242;28;49854;-78
2023/03/29 12:00:05;;;;;;;;;2.75;2.75;;;;;;;;5069210;27;49680;-78
2023/03/29 12:02:48;;;;;;;;;2.25;2.00;;;;;;;;5070307;28;49754;-78
2023/03/29 12:05:22;;;;;;;;;3.75;3.00;;;;;;;;5070446;28;49791;-78
2023/03/29 12:07:55;;;;;;;;;2.00;2.00;;;;;;;;5070151;28;50187;-77
2023/03/29 12:10:22;;;;;;;;;1.50;1.50;;;;;;;;5070279;28;49820;-77
2023/03/29 12:12:58;;;;;;;;;3.75;2.75;;;;;;;;5069483;27;49604;-77
2023/03/29 12:15:25;;;;;;;;;1.50;1.50;;;;;;;;5070473;28;49823;-78
2023/03/29 12:18:26;;;;;;;;;2.50;1.00;;;;;;;;5069949;28;50654;-78
2023/03/29 12:20:56;;;;;;;;;1.00;1.00;;;;;;;;4986378;28;49911;-78
2023/03/29 12:23:21;;;;;;;;;1.50;1.50;;;;;;;;4986876;28;50010;-78
2023/03/29 12:25:51;;;;;;;;;2.50;2.00;;;;;;;;4986351;28;50030;-77
2023/03/29 12:28:34;;;;;;;;;4.75;4.00;;;;;;;;4987185;28;50637;-78
2023/03/29 12:31:08;;;;;;;;;2.00;1.50;;;;;;;;4987243;28;49800;-78
2023/03/29 12:33:40;;;;;;;;;3.00;2.00;;;;;;;;4987023;28;49793;-78
2023/03/29 12:36:06;;;;;;;;;1.75;1.75;;;;;;;;4987193;28;49777;-78
2023/03/29 12:38:31;;;;;;;;;2.40;2.40;;;;;;;;4987074;28;50032;-78
2023/03/29 12:41:00;;;;;;;;;0.50;0.00;;;;;;;;4986992;28;49810;-78
2023/03/29 12:43:29;;;;;;;;;1.50;1.50;;;;;;;;4986832;28;49843;-78
2023/03/29 12:45:56;;;;;;;;;1.75;1.00;;;;;;;;4984919;28;49825;-81
2023/03/29 12:48:25;;;;;;;;;1.25;0.25;;;;;;;;4980681;28;50615;-73
2023/03/29 12:51:00;;;;;;;;;2.00;1.75;;;;;;;;4983461;28;50273;-84
2023/03/29 12:53:45;;;;;;;;;6.75;0.75;;;;;;;;4980287;28;50054;-76
2023/03/29 12:56:13;;;;;;;;;0.00;0.00;;;;;;;;5067618;28;49719;-78
2023/03/29 12:58:38;;;;;;;;;4.25;1.00;;;;;;;;5065862;28;51173;-82
2023/03/29 13:01:08;;;;;;;;;2.00;2.00;;;;;;;;5062547;28;50079;-80
2023/03/29 13:03:45;;;;;;;;;1.25;1.25;;;;;;;;5064233;28;50021;-77
2023/03/29 13:06:11;;;;;;;;;1.50;1.50;;;;;;;;5067696;28;50068;-76
2023/03/29 13:08:38;;;;;;;;;0.00;0.00;;;;;;;;5069037;28;50015;-79
2023/03/29 13:11:05;;;;;;;;;1.50;0.75;;;;;;;;5062603;28;49713;-79
2023/03/29 13:13:33;;;;;;;;;2.75;2.00;;;;;;;;5069670;28;49733;-81
2023/03/29 13:16:12;;;;;;;;;3.00;1.00;;;;;;;;5069757;27;49722;-82
2023/03/29 13:18:44;;;;;;;;;1.75;1.75;;;;;;;;5049600;27;53422;-80
2023/03/29 13:21:09;;;;;;;;;3.50;1.25;;;;;;;;5064076;28;49897;-78
2023/03/29 13:23:53;;;;;;;;;1.25;1.00;;;;;;;;5068485;28;49711;-78
2023/03/29 13:26:31;;;;;;;;;2.75;2.00;;;;;;;;5069452;28;50006;-78
2023/03/29 13:29:04;;;;;;;;;1.75;1.75;;;;;;;;5065249;27;52059;-76
2023/03/29 13:31:29;;;;;;;;;0.50;0.50;;;;;;;;5048538;28;50203;-77
2023/03/29 13:34:00;;;;;;;;;2.00;2.00;;;;;;;;5068492;28;49861;-75
2023/03/29 13:36:33;;;;;;;;;2.00;2.00;;;;;;;;5068389;28;49930;-75
2023/03/29 13:39:01;;;;;;;;;2.00;2.00;;;;;;;;5066069;28;50216;-78
2023/03/29 13:41:47;;;;;;;;;2.25;1.00;;;;;;;;5061719;28;49947;-80
2023/03/29 13:44:21;;;;;;;;;2.25;1.50;;;;;;;;5063092;27;49831;-78
2023/03/29 13:46:46;;;;;;;;;1.00;1.00;;;;;;;;5064052;27;50101;-81
2023/03/29 13:49:19;;;;;;;;;1.00;1.00;;;;;;;;5064352;28;49796;-80
2023/03/29 13:52:03;;;;;;;;;3.75;2.00;;;;;;;;5068685;28;49863;-81
2023/03/29 13:54:39;;;;;;;;;3.00;2.25;;;;;;;;5068035;28;49658;-78
2023/03/29 13:57:43;;;;;;;;;2.50;2.50;;;;;;;;5069802;28;49783;-79
2023/03/29 14:00:16;;;;;;;;;3.50;3.50;;;;;;;;4983731;28;51110;-78
2023/03/29 14:02:53;;;;;;;;;3.00;3.00;;;;;;;;4964063;28;49887;-78
2023/03/29 14:05:34;;;;;;;;;4.25;3.00;;;;;;;;4982193;28;49858;-79
2023/03/29 14:08:12;;;;;;;;;1.75;1.75;;;;;;;;4968631;28;49841;-79
2023/03/29 14:10:41;;;;;;;;;2.50;1.75;;;;;;;;4967025;28;50726;-80
2023/03/29 14:13:14;;;;;;;;;4.25;2.75;;;;;;;;4983955;28;50127;-82
2023/03/29 14:15:39;;;;;;;;;1.50;1.50;;;;;;;;4982510;28;49872;-77
2023/03/29 14:18:08;;;;;;;;;6.00;3.00;;;;;;;;4985249;28;50213;-78
2023/03/29 14:20:34;;;;;;;;;6.25;2.25;;;;;;;;4990395;28;50794;-80
2023/03/29 14:22:59;;;;;;;;;3.25;3.25;;;;;;;;4984791;28;50126;-84
2023/03/29 14:25:25;;;;;;;;;3.25;3.25;;;;;;;;4984518;28;50104;-83
2023/03/29 14:27:50;;;;;;;;;0.75;0.75;;;;;;;;4974450;28;50784;-87
2023/03/29 14:30:26;;;;;;;;;3.75;2.75;;;;;;;;5003721;28;49790;-86
2023/03/29 14:32:51;;;;;;;;;3.25;3.25;;;;;;;;5048629;28;49741;-81
2023/03/29 14:35:17;;;;;;;;;2.00;2.00;;;;;;;;5048279;28;49800;-82
2023/03/29 14:37:43;;;;;;;;;2.25;1.25;;;;;;;;5068184;28;50054;-79
2023/03/29 14:40:15;;;;;;;;;2.25;2.25;;;;;;;;5060806;27;49745;-83
2023/03/29 14:42:41;;;;;;;;;4.00;2.50;;;;;;;;5044814;27;50495;-83
2023/03/29 14:45:09;;;;;;;;;3.75;3.75;;;;;;;;5060788;27;50010;-86
2023/03/29 14:47:35;;;;;;;;;2.50;2.50;;;;;;;;5062498;28;49840;-81
2023/03/29 14:50:01;;;;;;;;;2.75;2.75;;;;;;;;5045844;28;52536;-84
2023/03/29 14:52:28;;;;;;;;;2.75;2.75;;;;;;;;5069020;27;50243;-80
2023/03/29 14:54:57;;;;;;;;;4.75;4.75;;;;;;;;5071705;28;50103;-81
2023/03/29 14:57:23;;;;;;;;;2.75;2.75;;;;;;;;5066715;28;50352;-78
2023/03/29 14:59:59;;;;;;;;;4.00;4.00;;;;;;;;5069507;27;50459;-79
2023/03/29 15:02:26;;;;;;;;;3.25;1.50;;;;;;;;5072215;28;49717;-86
2023/03/29 15:05:03;;;;;;;;;2.00;1.00;;;;;;;;5071097;28;50385;-85
2023/03/29 15:07:29;;;;;;;;;3.50;2.50;;;;;;;;5072190;28;50066;-84
2023/03/29 15:09:56;;;;;;;;;2.00;1.75;;;;;;;;5065060;28;50740;-84
2023/03/29 15:12:21;;;;;;;;;3.50;2.75;;;;;;;;5062226;27;50945;-82
2023/03/29 15:14:48;;;;;;;;;2.50;2.50;;;;;;;;5065373;27;50158;-79
2023/03/29 15:17:33;;;;;;;;;2.00;1.00;;;;;;;;5063275;28;50123;-84
2023/03/29 15:20:00;;;;;;;;;3.50;2.75;;;;;;;;5064318;28;49838;-83
2023/03/29 15:22:32;;;;;;;;;2.00;2.00;;;;;;;;5069597;28;50354;-78
2023/03/29 15:24:57;;;;;;;;;2.75;1.75;;;;;;;;5052630;28;49762;-77
2023/03/29 15:27:22;;;;;;;;;1.75;1.75;;;;;;;;5067648;28;49817;-80
2023/03/29 15:29:48;;;;;;;;;2.75;2.25;;;;;;;;5063053;28;51074;-84
2023/03/29 15:32:23;;;;;;;;;3.00;3.00;;;;;;;;5064520;28;50292;-80
2023/03/29 15:35:01;;;;;;;;;2.25;2.25;;;;;;;;5062728;27;49871;-80
2023/03/29 15:37:27;;;;;;;;;2.50;2.25;;;;;;;;5048068;28;49732;-88
2023/03/29 15:39:52;;;;;;;;;1.75;1.75;;;;;;;;5065357;28;51592;-84
2023/03/29 15:42:18;;;;;;;;;2.75;2.75;;;;;;;;5060735;27;50184;-82
2023/03/29 15:44:43;;;;;;;;;3.00;2.25;;;;;;;;5064641;27;50056;-77
2023/03/29 15:47:09;;;;;;;;;3.50;2.50;;;;;;;;5063116;28;49981;-84
2023/03/29 15:49:34;;;;;;;;;3.00;3.00;;;;;;;;5065011;28;49945;-82
2023/03/29 15:52:00;;;;;;;;;3.00;3.00;;;;;;;;5062794;28;50063;-83
2023/03/29 15:54:29;;;;;;;;;2.50;2.50;;;;;;;;5045057;28;49917;-80
2023/03/29 15:56:58;;;;;;;;;2.00;2.00;;;;;;;;5063930;28;50277;-81
2023/03/29 15:59:23;;;;;;;;;2.00;2.00;;;;;;;;5062152;27;49920;-70
2023/03/29 16:01:49;;;;;;;;;7.00;3.25;;;;;;;;5064035;28;50241;-70
2023/03/29 16:04:15;;;;;;;;;2.25;2.25;;;;;;;;5064435;28;49755;-70
2023/03/29 16:06:42;;;;;;;;;1.25;1.25;;;;;;;;5065103;28;49790;-71
2023/03/29 16:09:10;;;;;;;;;3.75;2.75;;;;;;;;5064135;28;50850;-70
2023/03/29 16:11:35;;;;;;;;;2.00;2.00;;;;;;;;5064208;28;51231;-71
2023/03/29 16:14:00;;;;;;;;;3.00;3.00;;;;;;;;5054220;27;50983;-70
2023/03/29 16:16:26;;;;;;;;;4.75;4.75;;;;;;;;5045693;28;51029;-69
2023/03/29 16:18:51;;;;;;;;;4.25;2.50;;;;;;;;5060809;28;49884;-69
2023/03/29 16:21:17;;;;;;;;;2.00;1.25;;;;;;;;5065101;28;49842;-69
2023/03/29 16:23:43;;;;;;;;;6.25;4.50;;;;;;;;5045692;28;50162;-70
2023/03/29 16:26:12;;;;;;;;;8.00;2.00;;;;;;;;5046919;28;50242;-70
2023/03/29 16:28:38;;;;;;;;;2.25;2.25;;;;;;;;5063361;28;51015;-69
2023/03/29 16:31:03;;;;;;;;;1.75;1.75;;;;;;;;5060275;27;50211;-70
2023/03/29 16:33:29;;;;;;;;;3.00;3.00;;;;;;;;5063544;28;49977;-71
2023/03/29 16:35:54;;;;;;;;;2.75;0.50;;;;;;;;5062718;28;50112;-69
2023/03/29 16:38:22;;;;;;;;;1.75;1.75;;;;;;;;5065385;28;50821;-69
2023/03/29 16:40:48;;;;;;;;;2.00;2.00;;;;;;;;5061522;28;50163;-70
2023/03/29 16:43:14;;;;;;;;;4.00;2.75;;;;;;;;5057172;27;50362;-69
2023/03/29 16:45:40;;;;;;;;;1.75;1.75;;;;;;;;5063214;28;50236;-73
2023/03/29 16:48:05;;;;;;;;;2.75;2.75;;;;;;;;5063435;28;49784;-73
2023/03/29 16:50:30;;;;;;;;;3.00;3.00;;;;;;;;5063071;28;49758;-76
2023/03/29 16:52:55;;;;;;;;;2.00;2.00;;;;;;;;5064229;28;49766;-81
2023/03/29 16:55:20;;;;;;;;;3.00;3.00;;;;;;;;5047442;28;49688;-76
2023/03/29 16:57:46;;;;;;;;;1.00;1.00;;;;;;;;5069576;28;50772;-78
2023/03/29 17:00:15;;;;;;;;;3.00;3.00;;;;;;;;5066698;28;49783;-80
2023/03/29 17:02:41;;;;;;;;;4.00;3.00;;;;;;;;5069769;28;49766;-79
2023/03/29 17:05:06;;;;;;;;;3.75;3.75;;;;;;;;5069841;28;50146;-77
2023/03/29 17:07:32;;;;;;;;;1.25;1.25;;;;;;;;5069522;28;50969;-76
2023/03/29 17:09:57;;;;;;;;;5.50;3.00;;;;;;;;5067434;28;50727;-75
2023/03/29 17:12:22;;;;;;;;;2.50;2.50;;;;;;;;5044152;27;50233;-75
2023/03/29 17:14:48;;;;;;;;;2.50;2.00;;;;;;;;5050113;27;50127;-75
2023/03/29 17:17:13;;;;;;;;;2.50;2.50;;;;;;;;5069131;28;50828;-76
2023/03/29 17:19:38;;;;;;;;;2.25;2.25;;;;;;;;5069560;28;50007;-77
2023/03/29 17:22:03;;;;;;;;;3.50;3.50;;;;;;;;5069516;28;49730;-77
2023/03/29 17:24:28;;;;;;;;;1.50;1.50;;;;;;;;5069502;28;50049;-79
2023/03/29 17:26:54;;;;;;;;;4.00;4.00;;;;;;;;5066188;28;50053;-76
2023/03/29 17:29:19;;;;;;;;;5.00;4.25;;;;;;;;5069217;28;50410;-74
2023/03/29 17:31:47;;;;;;;;;3.50;2.00;;;;;;;;5069045;28;50548;-76
2023/03/29 17:34:13;;;;;;;;;1.50;1.50;;;;;;;;5062542;28;49633;-79
2023/03/29 17:36:40;;;;;;;;;3.00;3.00;;;;;;;;5068346;28;50837;-76
2023/03/29 17:39:05;;;;;;;;;3.00;3.00;;;;;;;;5062387;28;50100;-77
2023/03/29 17:41:31;;;;;;;;;4.00;3.00;;;;;;;;5065378;28;50126;-78
2023/03/29 17:43:56;;;;;;;;;5.50;4.50;;;;;;;;5054472;27;50072;-77
2023/03/29 17:46:21;;;;;;;;;3.75;3.75;;;;;;;;5068709;28;50090;-71
2023/03/29 17:48:48;;;;;;;;;3.25;1.50;;;;;;;;5068693;28;49952;-74
2023/03/29 17:51:14;;;;;;;;;2.50;2.00;;;;;;;;5068731;28;49829;-70
2023/03/29 17:53:39;;;;;;;;;3.00;3.00;;;;;;;;5068494;28;49989;-69
2023/03/29 17:56:05;;;;;;;;;6.00;5.00;;;;;;;;5066533;28;49903;-75
2023/03/29 17:58:31;;;;;;;;;3.00;3.00;;;;;;;;5050471;28;49707;-72
2023/03/29 18:00:56;;;;;;;;;3.25;3.25;;;;;;;;5065104;27;49879;-72
2023/03/29 18:03:21;;;;;;;;;3.00;3.00;;;;;;;;5068848;28;49640;-75
2023/03/29 18:05:47;;;;;;;;;2.25;2.00;;;;;;;;5068488;28;50363;-74
2023/03/29 18:08:13;;;;;;;;;3.50;3.50;;;;;;;;5069130;28;49761;-72
2023/03/29 18:10:38;;;;;;;;;7.75;7.50;;;;;;;;5068994;28;50028;-71
2023/03/29 18:13:04;;;;;;;;;5.25;3.75;;;;;;;;5047147;28;49968;-72
2023/03/29 18:15:29;;;;;;;;;24.75;21.75;;;;;;;;5049715;28;50807;-72
2023/03/29 18:17:54;;;;;;;;;6.50;6.50;;;;;;;;5062004;28;50024;-73
2023/03/29 18:20:19;;;;;;;;;6.00;4.25;;;;;;;;5068242;27;50016;-72
2023/03/29 18:22:45;;;;;;;;;4.50;3.25;;;;;;;;5066872;28;49693;-71
2023/03/29 18:25:10;;;;;;;;;6.50;5.50;;;;;;;;5067944;27;50595;-71
2023/03/29 18:27:36;;;;;;;;;4.00;4.00;;;;;;;;5068151;28;50007;-71
2023/03/29 18:30:01;;;;;;;;;3.75;2.75;;;;;;;;5068536;28;50115;-71
2023/03/29 18:32:26;;;;;;;;;5.00;5.00;;;;;;;;5067366;28;49794;-72
2023/03/29 18:34:51;;;;;;;;;6.50;6.50;;;;;;;;5067916;28;50862;-71
2023/03/29 18:37:16;;;;;;;;;3.50;3.50;;;;;;;;5056652;28;49730;-73
2023/03/29 18:39:43;;;;;;;;;5.00;5.00;;;;;;;;5068407;28;50103;-73
2023/03/29 18:42:08;;;;;;;;;6.25;6.25;;;;;;;;5068135;28;50034;-73
2023/03/29 18:44:34;;;;;;;;;6.50;4.25;;;;;;;;5065856;27;50239;-73
2023/03/29 18:46:59;;;;;;;;;4.75;4.50;;;;;;;;5065047;27;49733;-71
2023/03/29 18:49:24;;;;;;;;;4.75;4.25;;;;;;;;5062783;27;50838;-71
2023/03/29 18:51:49;;;;;;;;;8.75;6.50;;;;;;;;5066799;28;49656;-71
2023/03/29 18:54:16;;;;;;;;;4.25;4.25;;;;;;;;5066129;28;49675;-71
2023/03/29 18:56:41;;;;;;;;;6.00;6.00;;;;;;;;5064588;28;49660;-71
2023/03/29 18:59:06;;;;;;;;;5.25;5.25;;;;;;;;5065804;28;49635;-71
2023/03/29 19:01:32;;;;;;;;;10.50;8.50;;;;;;;;5067791;28;49665;-70
2023/03/29 19:03:57;;;;;;;;;6.50;6.50;;;;;;;;5067670;28;50106;-71
2023/03/29 19:06:22;;;;;;;;;8.25;7.75;;;;;;;;5066899;28;50241;-71
2023/03/29 19:08:47;;;;;;;;;7.75;6.50;;;;;;;;5066987;28;49646;-75
2023/03/29 19:11:15;;;;;;;;;6.00;6.00;;;;;;;;5068177;28;50114;-71
2023/03/29 19:13:41;;;;;;;;;6.75;5.25;;;;;;;;5066642;28;51168;-70
2023/03/29 19:16:06;;;;;;;;;5.50;4.25;;;;;;;;5066526;28;49821;-71
2023/03/29 19:18:31;;;;;;;;;3.00;3.00;;;;;;;;5048712;28;50268;-70
2023/03/29 19:20:56;;;;;;;;;8.00;8.00;;;;;;;;5062637;27;50151;-70
2023/03/29 19:23:24;;;;;;;;;5.25;5.25;;;;;;;;5065250;28;51608;-70
2023/03/29 19:26:00;;;;;;;;;10.75;5.50;;;;;;;;5059711;28;49672;-70
2023/03/29 19:28:26;;;;;;;;;4.25;4.25;;;;;;;;5067480;28;49813;-70
2023/03/29 19:30:51;;;;;;;;;12.50;10.25;;;;;;;;5061416;27;49979;-69
2023/03/29 19:33:17;;;;;;;;;5.25;5.25;;;;;;;;5062820;28;50433;-69
2023/03/29 19:35:42;;;;;;;;;4.00;4.00;;;;;;;;5070755;28;50193;-70
2023/03/29 19:38:07;;;;;;;;;10.25;7.75;;;;;;;;5070324;28;49740;-70
2023/03/29 19:40:32;;;;;;;;;4.50;4.00;;;;;;;;5070960;28;49907;-69
2023/03/29 19:42:58;;;;;;;;;7.75;5.00;;;;;;;;5070156;28;50824;-69
2023/03/29 19:45:23;;;;;;;;;3.75;3.75;;;;;;;;5070273;27;50130;-70
2023/03/29 19:47:55;;;;;;;;;6.25;5.00;;;;;;;;5070867;28;49712;-69
2023/03/29 19:50:20;;;;;;;;;4.00;4.00;;;;;;;;5068758;27;50130;-70
2023/03/29 19:52:45;;;;;;;;;5.50;4.00;;;;;;;;5068361;27;51291;-71
2023/03/29 19:55:11;;;;;;;;;8.00;4.75;;;;;;;;5068511;28;49837;-70
2023/03/29 19:57:36;;;;;;;;;2.50;2.50;;;;;;;;5064855;27;49767;-70
2023/03/29 20:00:06;;;;;;;;;3.50;3.50;;;;;;;;5047606;28;50030;-70
2023/03/29 20:02:32;;;;;;;;;4.00;3.00;;;;;;;;5050468;28;51059;-70
2023/03/29 20:04:57;;;;;;;;;6.00;4.75;;;;;;;;5070128;28;49798;-71
2023/03/29 20:07:22;;;;;;;;;6.50;3.50;;;;;;;;5069808;28;50143;-71
2023/03/29 20:20:10;;;;;;;;;3.50;3.50;;;;;;;;4785226;22;51776;-70
2023/03/29 20:22:36;;;;;;;;;5.25;5.25;;;;;;;;5046617;28;49716;-69
2023/03/29 20:25:02;;;;;;;;;4.00;4.00;;;;;;;;5049977;28;49699;-70
2023/03/29 20:27:28;;;;;;;;;3.00;3.00;;;;;;;;5050299;28;50019;-69
2023/03/29 20:29:53;;;;;;;;;5.00;5.00;;;;;;;;5050263;28;50310;-69
2023/03/29 20:32:18;;;;;;;;;5.00;2.75;;;;;;;;5049839;28;50798;-69
2023/03/29 20:34:43;;;;;;;;;6.25;4.75;;;;;;;;5049854;28;50090;-69
2023/03/29 20:37:09;;;;;;;;;3.00;3.00;;;;;;;;5050129;28;50312;-70
2023/03/29 20:39:34;;;;;;;;;3.75;3.75;;;;;;;;5050432;28;49671;-70
2023/03/29 20:41:59;;;;;;;;;2.50;2.50;;;;;;;;5049239;28;50915;-69
2023/03/29 20:44:28;;;;;;;;;3.75;3.75;;;;;;;;5053798;28;49815;-70